sensor_id;sensor_type;location;lat;lon;timestamp;temperature;humidity
67093;SHT31;54011;50.772;7.730;2022-08-21T00:02:19;13.77;81.02
67093;SHT31;54011;50.772;7.730;2022-08-21T00:04:45;13.60;81.49
67093;SHT31;54011;50.772;7.730;2022-08-21T00:07:11;13.44;82.10
67093;SHT31;54011;50.772;7.730;2022-08-21T00:09:36;13.42;82.04
67093;SHT31;54011;50.772;7.730;2022-08-21T00:12:02;13.40;82.20
67093;SHT31;54011;50.772;7.730;2022-08-21T00:14:28;13.48;82.02
67093;SHT31;54011;50.772;7.730;2022-08-21T00:16:53;13.48;82.13
67093;SHT31;54011;50.772;7.730;2022-08-21T00:19:19;13.64;81.27
67093;SHT31;54011;50.772;7.730;2022-08-21T00:21:46;13.67;80.97
67093;SHT31;54011;50.772;7.730;2022-08-21T00:24:12;13.64;81.39
67093;SHT31;54011;50.772;7.730;2022-08-21T00:26:37;13.48;81.61
67093;SHT31;54011;50.772;7.730;2022-08-21T00:29:03;13.48;81.74
67093;SHT31;54011;50.772;7.730;2022-08-21T00:31:29;13.43;82.07
67093;SHT31;54011;50.772;7.730;2022-08-21T00:33:54;13.47;81.77
67093;SHT31;54011;50.772;7.730;2022-08-21T00:36:20;13.50;81.58
67093;SHT31;54011;50.772;7.730;2022-08-21T00:38:45;13.53;81.25
67093;SHT31;54011;50.772;7.730;2022-08-21T00:41:11;13.54;81.29
67093;SHT31;54011;50.772;7.730;2022-08-21T00:43:38;13.43;81.70
67093;SHT31;54011;50.772;7.730;2022-08-21T00:46:05;13.47;81.45
67093;SHT31;54011;50.772;7.730;2022-08-21T00:48:31;13.42;81.64
67093;SHT31;54011;50.772;7.730;2022-08-21T00:51:02;13.37;82.17
67093;SHT31;54011;50.772;7.730;2022-08-21T00:53:30;13.32;82.04
67093;SHT31;54011;50.772;7.730;2022-08-21T00:55:57;13.34;81.75
67093;SHT31;54011;50.772;7.730;2022-08-21T00:58:24;13.24;82.22
67093;SHT31;54011;50.772;7.730;2022-08-21T01:00:51;13.24;82.30
67093;SHT31;54011;50.772;7.730;2022-08-21T01:03:21;13.27;82.25
67093;SHT31;54011;50.772;7.730;2022-08-21T01:05:47;13.20;82.58
67093;SHT31;54011;50.772;7.730;2022-08-21T01:08:15;13.19;82.43
67093;SHT31;54011;50.772;7.730;2022-08-21T01:10:42;13.09;82.63
67093;SHT31;54011;50.772;7.730;2022-08-21T01:13:10;12.99;83.32
67093;SHT31;54011;50.772;7.730;2022-08-21T01:15:40;13.05;82.76
67093;SHT31;54011;50.772;7.730;2022-08-21T01:18:09;13.06;82.71
67093;SHT31;54011;50.772;7.730;2022-08-21T01:20:37;12.93;83.36
67093;SHT31;54011;50.772;7.730;2022-08-21T01:23:04;12.96;83.39
67093;SHT31;54011;50.772;7.730;2022-08-21T01:25:31;12.96;82.94
67093;SHT31;54011;50.772;7.730;2022-08-21T01:27:59;13.03;82.62
67093;SHT31;54011;50.772;7.730;2022-08-21T01:30:27;13.26;81.98
67093;SHT31;54011;50.772;7.730;2022-08-21T01:32:54;13.27;81.71
67093;SHT31;54011;50.772;7.730;2022-08-21T01:35:21;13.13;82.03
67093;SHT31;54011;50.772;7.730;2022-08-21T01:37:47;13.12;82.25
67093;SHT31;54011;50.772;7.730;2022-08-21T01:40:16;12.88;83.44
67093;SHT31;54011;50.772;7.730;2022-08-21T01:42:42;12.84;83.09
67093;SHT31;54011;50.772;7.730;2022-08-21T01:45:08;12.82;83.37
67093;SHT31;54011;50.772;7.730;2022-08-21T01:47:34;12.65;83.87
67093;SHT31;54011;50.772;7.730;2022-08-21T01:50:01;12.51;84.11
67093;SHT31;54011;50.772;7.730;2022-08-21T01:52:28;12.38;84.30
67093;SHT31;54011;50.772;7.730;2022-08-21T01:54:54;12.17;85.18
67093;SHT31;54011;50.772;7.730;2022-08-21T01:57:19;12.17;84.96
67093;SHT31;54011;50.772;7.730;2022-08-21T01:59:45;12.24;84.75
67093;SHT31;54011;50.772;7.730;2022-08-21T02:02:10;12.27;84.32
67093;SHT31;54011;50.772;7.730;2022-08-21T02:04:35;12.18;84.73
67093;SHT31;54011;50.772;7.730;2022-08-21T02:07:01;12.24;84.09
67093;SHT31;54011;50.772;7.730;2022-08-21T02:09:27;12.14;84.60
67093;SHT31;54011;50.772;7.730;2022-08-21T02:11:53;12.18;84.24
67093;SHT31;54011;50.772;7.730;2022-08-21T02:14:19;12.13;84.55
67093;SHT31;54011;50.772;7.730;2022-08-21T02:16:45;12.13;84.52
67093;SHT31;54011;50.772;7.730;2022-08-21T02:19:12;12.13;84.30
67093;SHT31;54011;50.772;7.730;2022-08-21T02:21:38;12.04;84.63
67093;SHT31;54011;50.772;7.730;2022-08-21T02:24:04;12.10;83.92
67093;SHT31;54011;50.772;7.730;2022-08-21T02:26:30;12.04;84.04
67093;SHT31;54011;50.772;7.730;2022-08-21T02:28:56;12.07;84.48
67093;SHT31;54011;50.772;7.730;2022-08-21T02:31:21;12.08;84.43
67093;SHT31;54011;50.772;7.730;2022-08-21T02:33:47;12.03;85.05
67093;SHT31;54011;50.772;7.730;2022-08-21T02:36:12;11.97;84.89
67093;SHT31;54011;50.772;7.730;2022-08-21T02:38:40;11.94;85.22
67093;SHT31;54011;50.772;7.730;2022-08-21T02:41:13;11.90;85.45
67093;SHT31;54011;50.772;7.730;2022-08-21T02:43:39;11.76;85.77
67093;SHT31;54011;50.772;7.730;2022-08-21T02:46:06;11.75;85.81
67093;SHT31;54011;50.772;7.730;2022-08-21T02:48:33;11.89;85.46
67093;SHT31;54011;50.772;7.730;2022-08-21T02:51:00;11.83;85.78
67093;SHT31;54011;50.772;7.730;2022-08-21T02:53:26;11.87;85.62
67093;SHT31;54011;50.772;7.730;2022-08-21T02:55:53;11.83;85.59
67093;SHT31;54011;50.772;7.730;2022-08-21T02:58:23;11.82;85.72
67093;SHT31;54011;50.772;7.730;2022-08-21T03:00:49;11.73;86.33
67093;SHT31;54011;50.772;7.730;2022-08-21T03:03:16;11.77;85.49
67093;SHT31;54011;50.772;7.730;2022-08-21T03:05:43;11.98;85.26
67093;SHT31;54011;50.772;7.730;2022-08-21T03:08:10;11.85;85.20
67093;SHT31;54011;50.772;7.730;2022-08-21T03:10:39;11.80;85.29
67093;SHT31;54011;50.772;7.730;2022-08-21T03:13:06;11.83;85.22
67093;SHT31;54011;50.772;7.730;2022-08-21T03:15:32;11.72;85.50
67093;SHT31;54011;50.772;7.730;2022-08-21T03:17:58;11.69;85.50
67093;SHT31;54011;50.772;7.730;2022-08-21T03:20:25;11.63;85.68
67093;SHT31;54011;50.772;7.730;2022-08-21T03:22:52;11.43;86.51
67093;SHT31;54011;50.772;7.730;2022-08-21T03:25:19;11.66;85.82
67093;SHT31;54011;50.772;7.730;2022-08-21T03:27:46;11.73;85.33
67093;SHT31;54011;50.772;7.730;2022-08-21T03:30:15;11.73;85.18
67093;SHT31;54011;50.772;7.730;2022-08-21T03:32:41;11.63;85.40
67093;SHT31;54011;50.772;7.730;2022-08-21T03:35:07;11.85;84.82
67093;SHT31;54011;50.772;7.730;2022-08-21T03:37:32;11.80;84.97
67093;SHT31;54011;50.772;7.730;2022-08-21T03:39:58;11.76;85.09
67093;SHT31;54011;50.772;7.730;2022-08-21T03:42:23;11.76;85.09
67093;SHT31;54011;50.772;7.730;2022-08-21T03:44:49;11.58;85.68
67093;SHT31;54011;50.772;7.730;2022-08-21T03:47:14;11.55;85.83
67093;SHT31;54011;50.772;7.730;2022-08-21T03:49:40;11.58;85.87
67093;SHT31;54011;50.772;7.730;2022-08-21T03:52:06;11.55;86.17
67093;SHT31;54011;50.772;7.730;2022-08-21T03:54:32;11.55;85.90
67093;SHT31;54011;50.772;7.730;2022-08-21T03:56:58;11.51;85.85
67093;SHT31;54011;50.772;7.730;2022-08-21T03:59:24;11.48;85.94
67093;SHT31;54011;50.772;7.730;2022-08-21T04:01:58;11.36;86.52
67093;SHT31;54011;50.772;7.730;2022-08-21T04:04:25;11.46;86.19
67093;SHT31;54011;50.772;7.730;2022-08-21T04:06:51;11.35;86.40
67093;SHT31;54011;50.772;7.730;2022-08-21T04:09:18;11.17;86.88
67093;SHT31;54011;50.772;7.730;2022-08-21T04:11:43;10.98;87.42
67093;SHT31;54011;50.772;7.730;2022-08-21T04:14:10;11.11;86.57
67093;SHT31;54011;50.772;7.730;2022-08-21T04:16:36;11.11;86.41
67093;SHT31;54011;50.772;7.730;2022-08-21T04:19:01;11.10;86.57
67093;SHT31;54011;50.772;7.730;2022-08-21T04:21:27;11.03;86.50
67093;SHT31;54011;50.772;7.730;2022-08-21T04:23:55;11.08;86.18
67093;SHT31;54011;50.772;7.730;2022-08-21T04:26:21;11.05;86.29
67093;SHT31;54011;50.772;7.730;2022-08-21T04:28:47;10.93;86.41
67093;SHT31;54011;50.772;7.730;2022-08-21T04:31:12;10.90;86.62
67093;SHT31;54011;50.772;7.730;2022-08-21T04:33:38;10.93;86.50
67093;SHT31;54011;50.772;7.730;2022-08-21T04:36:04;10.90;86.47
67093;SHT31;54011;50.772;7.730;2022-08-21T04:38:29;10.96;86.32
67093;SHT31;54011;50.772;7.730;2022-08-21T04:40:56;10.93;86.41
67093;SHT31;54011;50.772;7.730;2022-08-21T04:43:22;11.03;86.00
67093;SHT31;54011;50.772;7.730;2022-08-21T04:45:50;11.05;85.62
67093;SHT31;54011;50.772;7.730;2022-08-21T04:48:18;11.14;85.58
67093;SHT31;54011;50.772;7.730;2022-08-21T04:54:06;11.00;86.13
67093;SHT31;54011;50.772;7.730;2022-08-21T04:56:38;11.11;85.50
67093;SHT31;54011;50.772;7.730;2022-08-21T04:59:11;11.17;85.81
67093;SHT31;54011;50.772;7.730;2022-08-21T05:01:37;11.12;86.39
67093;SHT31;54011;50.772;7.730;2022-08-21T05:04:05;11.22;86.14
67093;SHT31;54011;50.772;7.730;2022-08-21T05:06:35;11.27;86.14
67093;SHT31;54011;50.772;7.730;2022-08-21T05:09:02;11.21;86.17
67093;SHT31;54011;50.772;7.730;2022-08-21T05:11:30;11.28;86.12
67093;SHT31;54011;50.772;7.730;2022-08-21T05:13:56;11.38;85.51
67093;SHT31;54011;50.772;7.730;2022-08-21T05:16:21;11.59;85.10
67093;SHT31;54011;50.772;7.730;2022-08-21T05:18:47;11.55;84.96
67093;SHT31;54011;50.772;7.730;2022-08-21T05:21:12;11.52;84.80
67093;SHT31;54011;50.772;7.730;2022-08-21T05:23:37;11.35;85.79
67093;SHT31;54011;50.772;7.730;2022-08-21T05:26:03;11.25;85.63
67093;SHT31;54011;50.772;7.730;2022-08-21T05:28:30;11.34;85.64
67093;SHT31;54011;50.772;7.730;2022-08-21T05:30:55;11.51;84.76
67093;SHT31;54011;50.772;7.730;2022-08-21T05:33:21;11.39;85.56
67093;SHT31;54011;50.772;7.730;2022-08-21T05:35:50;11.49;85.10
67093;SHT31;54011;50.772;7.730;2022-08-21T05:38:17;11.58;84.92
67093;SHT31;54011;50.772;7.730;2022-08-21T05:40:42;11.58;84.52
67093;SHT31;54011;50.772;7.730;2022-08-21T05:43:08;11.69;84.32
67093;SHT31;54011;50.772;7.730;2022-08-21T05:45:33;11.66;84.64
67093;SHT31;54011;50.772;7.730;2022-08-21T05:48:06;11.77;84.56
67093;SHT31;54011;50.772;7.730;2022-08-21T05:50:32;11.85;85.28
67093;SHT31;54011;50.772;7.730;2022-08-21T05:52:57;12.01;84.54
67093;SHT31;54011;50.772;7.730;2022-08-21T05:55:23;12.13;84.36
67093;SHT31;54011;50.772;7.730;2022-08-21T05:57:48;12.20;85.11
67093;SHT31;54011;50.772;7.730;2022-08-21T06:00:14;12.41;85.27
67093;SHT31;54011;50.772;7.730;2022-08-21T06:02:40;12.49;85.36
67093;SHT31;54011;50.772;7.730;2022-08-21T06:05:06;12.66;84.81
67093;SHT31;54011;50.772;7.730;2022-08-21T06:07:32;12.74;84.65
67093;SHT31;54011;50.772;7.730;2022-08-21T06:09:57;13.00;83.76
67093;SHT31;54011;50.772;7.730;2022-08-21T06:12:23;12.99;83.67
67093;SHT31;54011;50.772;7.730;2022-08-21T06:14:49;13.00;83.86
67093;SHT31;54011;50.772;7.730;2022-08-21T06:17:15;12.99;83.70
67093;SHT31;54011;50.772;7.730;2022-08-21T06:19:41;13.12;83.23
67093;SHT31;54011;50.772;7.730;2022-08-21T06:22:06;13.15;83.18
67093;SHT31;54011;50.772;7.730;2022-08-21T06:24:32;13.34;82.60
67093;SHT31;54011;50.772;7.730;2022-08-21T06:27:03;13.27;82.35
67093;SHT31;54011;50.772;7.730;2022-08-21T06:29:28;13.30;82.37
67093;SHT31;54011;50.772;7.730;2022-08-21T06:31:54;13.34;82.67
67093;SHT31;54011;50.772;7.730;2022-08-21T06:34:19;13.48;81.04
67093;SHT31;54011;50.772;7.730;2022-08-21T06:36:44;13.56;80.31
67093;SHT31;54011;50.772;7.730;2022-08-21T06:39:10;13.71;81.00
67093;SHT31;54011;50.772;7.730;2022-08-21T06:41:36;13.89;80.56
67093;SHT31;54011;50.772;7.730;2022-08-21T06:44:01;13.97;80.27
67093;SHT31;54011;50.772;7.730;2022-08-21T06:46:28;14.18;79.62
67093;SHT31;54011;50.772;7.730;2022-08-21T06:48:54;14.22;79.52
67093;SHT31;54011;50.772;7.730;2022-08-21T06:51:20;14.49;78.73
67093;SHT31;54011;50.772;7.730;2022-08-21T06:53:46;14.50;78.60
67093;SHT31;54011;50.772;7.730;2022-08-21T06:56:11;14.57;78.50
67093;SHT31;54011;50.772;7.730;2022-08-21T06:58:37;14.69;78.75
67093;SHT31;54011;50.772;7.730;2022-08-21T07:01:03;14.84;78.17
67093;SHT31;54011;50.772;7.730;2022-08-21T07:03:32;15.05;77.45
67093;SHT31;54011;50.772;7.730;2022-08-21T07:05:58;15.21;76.92
67093;SHT31;54011;50.772;7.730;2022-08-21T07:08:25;15.31;76.61
67093;SHT31;54011;50.772;7.730;2022-08-21T07:10:52;15.45;76.14
67093;SHT31;54011;50.772;7.730;2022-08-21T07:13:18;15.65;75.23
67093;SHT31;54011;50.772;7.730;2022-08-21T07:15:44;15.62;75.32
67093;SHT31;54011;50.772;7.730;2022-08-21T07:18:10;15.82;74.90
67093;SHT31;54011;50.772;7.730;2022-08-21T07:20:37;16.03;74.87
67093;SHT31;54011;50.772;7.730;2022-08-21T07:23:05;16.18;74.63
67093;SHT31;54011;50.772;7.730;2022-08-21T07:25:31;16.24;73.70
67093;SHT31;54011;50.772;7.730;2022-08-21T07:27:57;16.38;73.80
67093;SHT31;54011;50.772;7.730;2022-08-21T07:30:22;16.53;73.52
67093;SHT31;54011;50.772;7.730;2022-08-21T07:32:49;16.98;72.20
67093;SHT31;54011;50.772;7.730;2022-08-21T07:35:16;17.46;70.41
67093;SHT31;54011;50.772;7.730;2022-08-21T07:37:41;17.71;69.12
67093;SHT31;54011;50.772;7.730;2022-08-21T07:40:07;17.74;69.60
67093;SHT31;54011;50.772;7.730;2022-08-21T07:42:33;17.83;69.10
67093;SHT31;54011;50.772;7.730;2022-08-21T07:44:58;17.78;69.38
67093;SHT31;54011;50.772;7.730;2022-08-21T07:47:24;17.88;69.57
67093;SHT31;54011;50.772;7.730;2022-08-21T07:49:49;17.80;69.72
67093;SHT31;54011;50.772;7.730;2022-08-21T07:52:15;17.95;69.49
67093;SHT31;54011;50.772;7.730;2022-08-21T07:54:41;18.01;68.85
67093;SHT31;54011;50.772;7.730;2022-08-21T07:57:06;18.04;68.79
67093;SHT31;54011;50.772;7.730;2022-08-21T07:59:31;18.34;67.84
67093;SHT31;54011;50.772;7.730;2022-08-21T08:01:57;18.55;67.65
67093;SHT31;54011;50.772;7.730;2022-08-21T08:04:22;18.66;66.99
67093;SHT31;54011;50.772;7.730;2022-08-21T08:06:48;19.08;66.80
67093;SHT31;54011;50.772;7.730;2022-08-21T08:09:13;19.28;65.38
67093;SHT31;54011;50.772;7.730;2022-08-21T08:11:41;19.31;65.42
67093;SHT31;54011;50.772;7.730;2022-08-21T08:14:08;19.51;65.32
67093;SHT31;54011;50.772;7.730;2022-08-21T08:16:33;19.90;63.89
67093;SHT31;54011;50.772;7.730;2022-08-21T08:18:58;20.02;64.03
67093;SHT31;54011;50.772;7.730;2022-08-21T08:21:24;20.34;62.82
67093;SHT31;54011;50.772;7.730;2022-08-21T08:23:50;20.60;61.49
67093;SHT31;54011;50.772;7.730;2022-08-21T08:26:15;20.87;60.67
67093;SHT31;54011;50.772;7.730;2022-08-21T08:28:41;21.23;59.78
67093;SHT31;54011;50.772;7.730;2022-08-21T08:31:07;21.74;58.69
67093;SHT31;54011;50.772;7.730;2022-08-21T08:33:32;21.36;58.42
67093;SHT31;54011;50.772;7.730;2022-08-21T08:35:58;21.69;58.05
67093;SHT31;54011;50.772;7.730;2022-08-21T08:38:24;21.93;56.90
67093;SHT31;54011;50.772;7.730;2022-08-21T08:40:52;22.32;56.10
67093;SHT31;54011;50.772;7.730;2022-08-21T08:43:20;22.52;55.79
67093;SHT31;54011;50.772;7.730;2022-08-21T08:45:49;22.89;54.96
67093;SHT31;54011;50.772;7.730;2022-08-21T08:48:31;23.34;53.74
67093;SHT31;54011;50.772;7.730;2022-08-21T08:51:00;23.41;53.29
67093;SHT31;54011;50.772;7.730;2022-08-21T08:53:33;23.77;51.92
67093;SHT31;54011;50.772;7.730;2022-08-21T08:56:03;23.58;52.92
67093;SHT31;54011;50.772;7.730;2022-08-21T08:58:33;23.84;50.39
67093;SHT31;54011;50.772;7.730;2022-08-21T09:01:05;24.71;48.77
67093;SHT31;54011;50.772;7.730;2022-08-21T09:03:32;24.97;48.43
67093;SHT31;54011;50.772;7.730;2022-08-21T09:12:06;25.76;45.56
67093;SHT31;54011;50.772;7.730;2022-08-21T09:17:51;25.41;44.85
67093;SHT31;54011;50.772;7.730;2022-08-21T09:26:17;25.66;45.87
67093;SHT31;54011;50.772;7.730;2022-08-21T09:28:43;26.14;42.71
67093;SHT31;54011;50.772;7.730;2022-08-21T09:31:23;26.06;42.59
67093;SHT31;54011;50.772;7.730;2022-08-21T09:33:49;25.57;43.25
67093;SHT31;54011;50.772;7.730;2022-08-21T09:36:42;26.19;43.14
67093;SHT31;54011;50.772;7.730;2022-08-21T09:39:10;25.39;44.10
67093;SHT31;54011;50.772;7.730;2022-08-21T09:41:37;25.94;43.06
67093;SHT31;54011;50.772;7.730;2022-08-21T09:44:08;26.30;43.27
67093;SHT31;54011;50.772;7.730;2022-08-21T09:46:33;25.89;43.61
67093;SHT31;54011;50.772;7.730;2022-08-21T09:49:02;25.86;42.73
67093;SHT31;54011;50.772;7.730;2022-08-21T09:51:31;26.78;40.28
67093;SHT31;54011;50.772;7.730;2022-08-21T09:54:17;27.05;41.50
67093;SHT31;54011;50.772;7.730;2022-08-21T09:59:54;26.43;42.66
67093;SHT31;54011;50.772;7.730;2022-08-21T10:02:32;26.37;41.04
67093;SHT31;54011;50.772;7.730;2022-08-21T10:05:07;26.72;41.62
67093;SHT31;54011;50.772;7.730;2022-08-21T10:07:36;26.38;42.85
67093;SHT31;54011;50.772;7.730;2022-08-21T10:10:09;26.16;42.74
67093;SHT31;54011;50.772;7.730;2022-08-21T10:18:38;26.36;41.27
67093;SHT31;54011;50.772;7.730;2022-08-21T10:21:09;27.18;39.93
67093;SHT31;54011;50.772;7.730;2022-08-21T10:27:09;27.42;38.69
67093;SHT31;54011;50.772;7.730;2022-08-21T10:35:23;27.42;39.31
67093;SHT31;54011;50.772;7.730;2022-08-21T10:43:23;28.15;37.44
67093;SHT31;54011;50.772;7.730;2022-08-21T10:46:14;29.17;36.34
67093;SHT31;54011;50.772;7.730;2022-08-21T10:49:11;28.29;37.58
67093;SHT31;54011;50.772;7.730;2022-08-21T10:51:47;28.72;36.95
67093;SHT31;54011;50.772;7.730;2022-08-21T10:54:38;28.63;36.93
67093;SHT31;54011;50.772;7.730;2022-08-21T10:57:18;28.58;37.11
67093;SHT31;54011;50.772;7.730;2022-08-21T10:59:54;27.33;37.92
67093;SHT31;54011;50.772;7.730;2022-08-21T11:02:32;27.70;37.70
67093;SHT31;54011;50.772;7.730;2022-08-21T11:05:06;28.90;36.69
67093;SHT31;54011;50.772;7.730;2022-08-21T11:08:06;29.03;35.79
67093;SHT31;54011;50.772;7.730;2022-08-21T11:10:46;28.89;36.20
67093;SHT31;54011;50.772;7.730;2022-08-21T11:13:35;29.38;35.90
67093;SHT31;54011;50.772;7.730;2022-08-21T11:16:14;29.53;35.38
67093;SHT31;54011;50.772;7.730;2022-08-21T11:19:10;29.39;35.12
67093;SHT31;54011;50.772;7.730;2022-08-21T11:21:38;29.21;34.93
67093;SHT31;54011;50.772;7.730;2022-08-21T11:24:30;30.53;33.36
67093;SHT31;54011;50.772;7.730;2022-08-21T11:27:06;30.33;33.77
67093;SHT31;54011;50.772;7.730;2022-08-21T11:29:38;30.23;34.17
67093;SHT31;54011;50.772;7.730;2022-08-21T11:37:54;29.93;33.78
67093;SHT31;54011;50.772;7.730;2022-08-21T11:45:44;29.10;34.60
67093;SHT31;54011;50.772;7.730;2022-08-21T11:50:40;29.17;34.10
67093;SHT31;54011;50.772;7.730;2022-08-21T11:53:15;29.93;33.19
67093;SHT31;54011;50.772;7.730;2022-08-21T11:55:49;29.59;34.71
67093;SHT31;54011;50.772;7.730;2022-08-21T11:58:25;29.50;34.10
67093;SHT31;54011;50.772;7.730;2022-08-21T12:00:58;29.65;33.19
67093;SHT31;54011;50.772;7.730;2022-08-21T12:03:38;29.78;33.04
67093;SHT31;54011;50.772;7.730;2022-08-21T12:06:12;29.95;31.86
67093;SHT31;54011;50.772;7.730;2022-08-21T12:14:16;29.90;32.49
67093;SHT31;54011;50.772;7.730;2022-08-21T12:16:41;29.90;31.20
67093;SHT31;54011;50.772;7.730;2022-08-21T12:19:10;30.80;30.18
67093;SHT31;54011;50.772;7.730;2022-08-21T12:21:58;30.97;30.40
67093;SHT31;54011;50.772;7.730;2022-08-21T12:26:55;31.10;30.09
67093;SHT31;54011;50.772;7.730;2022-08-21T12:29:32;30.83;30.82
67093;SHT31;54011;50.772;7.730;2022-08-21T12:32:44;31.19;30.07
67093;SHT31;54011;50.772;7.730;2022-08-21T12:35:06;30.09;31.97
67093;SHT31;54011;50.772;7.730;2022-08-21T12:37:43;30.91;30.26
67093;SHT31;54011;50.772;7.730;2022-08-21T12:40:23;30.76;30.85
67093;SHT31;54011;50.772;7.730;2022-08-21T12:42:53;31.31;30.28
67093;SHT31;54011;50.772;7.730;2022-08-21T12:45:23;31.50;28.44
67093;SHT31;54011;50.772;7.730;2022-08-21T12:50:48;32.06;26.92
67093;SHT31;54011;50.772;7.730;2022-08-21T12:53:30;31.98;27.45
67093;SHT31;54011;50.772;7.730;2022-08-21T12:55:57;31.80;28.46
67093;SHT31;54011;50.772;7.730;2022-08-21T12:58:27;31.98;27.65
67093;SHT31;54011;50.772;7.730;2022-08-21T13:01:06;30.84;28.54
67093;SHT31;54011;50.772;7.730;2022-08-21T13:03:35;31.02;28.90
67093;SHT31;54011;50.772;7.730;2022-08-21T13:06:03;31.67;27.38
67093;SHT31;54011;50.772;7.730;2022-08-21T13:08:29;30.85;28.35
67093;SHT31;54011;50.772;7.730;2022-08-21T13:10:59;31.73;26.64
67093;SHT31;54011;50.772;7.730;2022-08-21T13:13:27;32.24;25.52
67093;SHT31;54011;50.772;7.730;2022-08-21T13:15:58;33.21;25.29
67093;SHT31;54011;50.772;7.730;2022-08-21T13:18:27;32.67;25.36
67093;SHT31;54011;50.772;7.730;2022-08-21T13:21:06;34.07;24.64
67093;SHT31;54011;50.772;7.730;2022-08-21T13:23:32;34.14;24.86
67093;SHT31;54011;50.772;7.730;2022-08-21T13:25:58;32.48;26.11
67093;SHT31;54011;50.772;7.730;2022-08-21T13:28:32;33.74;25.08
67093;SHT31;54011;50.772;7.730;2022-08-21T13:30:58;34.28;24.22
67093;SHT31;54011;50.772;7.730;2022-08-21T13:33:29;33.29;26.50
67093;SHT31;54011;50.772;7.730;2022-08-21T13:36:00;32.81;27.33
67093;SHT31;54011;50.772;7.730;2022-08-21T13:38:29;33.03;27.20
67093;SHT31;54011;50.772;7.730;2022-08-21T13:41:02;32.51;27.34
67093;SHT31;54011;50.772;7.730;2022-08-21T13:43:34;32.14;28.61
67093;SHT31;54011;50.772;7.730;2022-08-21T13:46:01;32.96;26.19
67093;SHT31;54011;50.772;7.730;2022-08-21T13:48:31;32.45;26.57
67093;SHT31;54011;50.772;7.730;2022-08-21T13:50:58;33.02;25.92
67093;SHT31;54011;50.772;7.730;2022-08-21T13:55:58;31.80;27.65
67093;SHT31;54011;50.772;7.730;2022-08-21T13:58:32;32.37;26.76
67093;SHT31;54011;50.772;7.730;2022-08-21T14:00:59;33.03;25.55
67093;SHT31;54011;50.772;7.730;2022-08-21T14:03:35;33.89;25.43
67093;SHT31;54011;50.772;7.730;2022-08-21T14:06:03;34.21;24.61
67093;SHT31;54011;50.772;7.730;2022-08-21T14:08:37;33.87;25.04
67093;SHT31;54011;50.772;7.730;2022-08-21T14:11:10;33.89;24.83
67093;SHT31;54011;50.772;7.730;2022-08-21T14:13:40;34.28;25.40
67093;SHT31;54011;50.772;7.730;2022-08-21T14:16:17;34.01;25.97
67093;SHT31;54011;50.772;7.730;2022-08-21T14:18:53;34.35;25.63
67093;SHT31;54011;50.772;7.730;2022-08-21T14:21:55;33.37;26.11
67093;SHT31;54011;50.772;7.730;2022-08-21T14:27:04;32.78;26.82
67093;SHT31;54011;50.772;7.730;2022-08-21T14:29:36;32.38;27.39
67093;SHT31;54011;50.772;7.730;2022-08-21T14:32:35;32.75;27.75
67093;SHT31;54011;50.772;7.730;2022-08-21T14:34:56;32.82;26.95
67093;SHT31;54011;50.772;7.730;2022-08-21T14:37:22;33.26;26.40
67093;SHT31;54011;50.772;7.730;2022-08-21T14:39:48;32.84;26.87
67093;SHT31;54011;50.772;7.730;2022-08-21T14:42:13;32.60;27.13
67093;SHT31;54011;50.772;7.730;2022-08-21T14:44:44;33.53;25.73
67093;SHT31;54011;50.772;7.730;2022-08-21T14:50:16;32.79;26.70
67093;SHT31;54011;50.772;7.730;2022-08-21T14:52:45;33.80;26.16
67093;SHT31;54011;50.772;7.730;2022-08-21T14:55:12;33.78;25.13
67093;SHT31;54011;50.772;7.730;2022-08-21T14:57:42;33.81;24.95
67093;SHT31;54011;50.772;7.730;2022-08-21T15:00:13;33.53;25.99
67093;SHT31;54011;50.772;7.730;2022-08-21T15:02:46;33.40;25.84
67093;SHT31;54011;50.772;7.730;2022-08-21T15:05:12;32.28;27.20
67093;SHT31;54011;50.772;7.730;2022-08-21T15:07:38;32.07;27.85
67093;SHT31;54011;50.772;7.730;2022-08-21T15:10:05;32.64;27.48
67093;SHT31;54011;50.772;7.730;2022-08-21T15:12:31;32.20;27.62
67093;SHT31;54011;50.772;7.730;2022-08-21T15:15:06;30.64;29.66
67093;SHT31;54011;50.772;7.730;2022-08-21T15:17:32;31.24;28.54
67093;SHT31;54011;50.772;7.730;2022-08-21T15:20:01;30.64;29.02
67093;SHT31;54011;50.772;7.730;2022-08-21T15:22:27;30.44;29.36
67093;SHT31;54011;50.772;7.730;2022-08-21T15:24:52;29.84;30.45
67093;SHT31;54011;50.772;7.730;2022-08-21T15:27:18;29.59;30.67
67093;SHT31;54011;50.772;7.730;2022-08-21T15:29:44;29.78;30.62
67093;SHT31;54011;50.772;7.730;2022-08-21T15:32:24;28.96;31.88
67093;SHT31;54011;50.772;7.730;2022-08-21T15:34:52;28.37;33.07
67093;SHT31;54011;50.772;7.730;2022-08-21T15:39:59;28.07;32.95
67093;SHT31;54011;50.772;7.730;2022-08-21T15:42:48;28.18;33.02
67093;SHT31;54011;50.772;7.730;2022-08-21T15:45:18;27.97;33.23
67093;SHT31;54011;50.772;7.730;2022-08-21T15:47:45;27.91;33.82
67093;SHT31;54011;50.772;7.730;2022-08-21T15:50:14;27.96;34.04
67093;SHT31;54011;50.772;7.730;2022-08-21T15:52:40;28.00;33.74
67093;SHT31;54011;50.772;7.730;2022-08-21T15:55:07;27.59;33.53
67093;SHT31;54011;50.772;7.730;2022-08-21T15:57:34;28.01;33.01
67093;SHT31;54011;50.772;7.730;2022-08-21T16:00:23;28.32;31.96
67093;SHT31;54011;50.772;7.730;2022-08-21T16:03:03;28.82;32.08
67093;SHT31;54011;50.772;7.730;2022-08-21T16:05:29;29.20;31.13
67093;SHT31;54011;50.772;7.730;2022-08-21T16:07:55;29.24;31.06
67093;SHT31;54011;50.772;7.730;2022-08-21T16:10:23;28.79;31.79
67093;SHT31;54011;50.772;7.730;2022-08-21T16:12:56;28.96;31.34
67093;SHT31;54011;50.772;7.730;2022-08-21T16:15:22;28.92;31.44
67093;SHT31;54011;50.772;7.730;2022-08-21T16:17:48;28.56;32.78
67093;SHT31;54011;50.772;7.730;2022-08-21T16:20:21;28.37;31.91
67093;SHT31;54011;50.772;7.730;2022-08-21T16:22:54;28.14;32.63
67093;SHT31;54011;50.772;7.730;2022-08-21T16:25:33;27.73;33.57
67093;SHT31;54011;50.772;7.730;2022-08-21T16:28:11;27.10;34.24
67093;SHT31;54011;50.772;7.730;2022-08-21T16:33:54;27.06;33.97
67093;SHT31;54011;50.772;7.730;2022-08-21T16:36:21;27.40;34.82
67093;SHT31;54011;50.772;7.730;2022-08-21T16:38:47;27.25;34.33
67093;SHT31;54011;50.772;7.730;2022-08-21T16:41:17;27.28;34.52
67093;SHT31;54011;50.772;7.730;2022-08-21T16:43:44;26.69;35.42
67093;SHT31;54011;50.772;7.730;2022-08-21T16:46:12;26.71;35.15
67093;SHT31;54011;50.772;7.730;2022-08-21T16:48:39;26.79;35.79
67093;SHT31;54011;50.772;7.730;2022-08-21T16:51:05;26.85;36.15
67093;SHT31;54011;50.772;7.730;2022-08-21T16:53:31;26.58;36.05
67093;SHT31;54011;50.772;7.730;2022-08-21T16:55:57;26.47;36.85
67093;SHT31;54011;50.772;7.730;2022-08-21T17:00:50;26.40;37.40
67093;SHT31;54011;50.772;7.730;2022-08-21T17:03:18;26.21;37.54
67093;SHT31;54011;50.772;7.730;2022-08-21T17:05:46;26.01;37.95